createdAt,value
2018-09-26T00:00:26.628Z,2.17
2018-09-26T00:03:00.290Z,1.70
2018-09-26T00:05:29.247Z,2.27
2018-09-26T00:07:58.578Z,2.20
2018-09-26T00:10:27.482Z,1.83
2018-09-26T00:12:56.246Z,2.10
2018-09-26T00:15:25.203Z,1.90
2018-09-26T00:17:54.082Z,2.20
2018-09-26T00:20:23.252Z,2.10
2018-09-26T00:22:52.405Z,2.10
2018-09-26T00:25:21.143Z,1.80
2018-09-26T00:27:49.811Z,2.13
2018-09-26T00:30:18.568Z,2.10
2018-09-26T00:32:47.418Z,1.83
2018-09-26T00:35:16.533Z,2.13
2018-09-26T00:37:45.520Z,1.83
2018-09-26T00:40:14.513Z,1.97
2018-09-26T00:42:43.252Z,1.90
2018-09-26T00:45:12.137Z,2.00
2018-09-26T00:47:41.546Z,1.67
2018-09-26T00:50:10.669Z,2.60
2018-09-26T00:52:39.739Z,1.70
2018-09-26T00:55:09.410Z,2.45
2018-09-26T00:57:38.119Z,1.98
2018-09-26T01:00:07.552Z,1.80
2018-09-26T01:02:36.759Z,1.97
2018-09-26T01:05:05.720Z,1.87
2018-09-26T01:07:34.762Z,2.00
2018-09-26T01:10:03.819Z,2.10
2018-09-26T01:12:32.717Z,2.10
2018-09-26T01:15:01.374Z,2.37
2018-09-26T01:17:30.077Z,2.00
2018-09-26T01:19:59.180Z,2.00
2018-09-26T01:22:28.534Z,2.20
2018-09-26T01:24:57.296Z,2.00
2018-09-26T01:27:26.376Z,1.83
2018-09-26T01:29:55.414Z,2.10
2018-09-26T01:32:24.210Z,2.30
2018-09-26T01:34:52.900Z,2.07
2018-09-26T01:37:21.968Z,1.73
2018-09-26T01:39:51.080Z,1.80
2018-09-26T01:42:20.123Z,2.10
2018-09-26T01:44:49.083Z,1.80
2018-09-26T01:47:17.927Z,2.23
2018-09-26T01:49:46.957Z,1.93
2018-09-26T01:52:15.878Z,1.80
2018-09-26T01:54:44.656Z,2.00
2018-09-26T01:57:13.804Z,2.10
2018-09-26T01:59:42.976Z,2.00
2018-09-26T02:02:12.124Z,1.90
2018-09-26T02:04:41.426Z,2.20
2018-09-26T02:07:10.497Z,1.87
2018-09-26T02:09:39.581Z,2.20
2018-09-26T02:12:10.010Z,2.05
2018-09-26T02:14:39.076Z,2.03
2018-09-26T02:17:08.108Z,2.00
2018-09-26T02:19:36.915Z,2.63
2018-09-26T02:22:05.553Z,2.20
2018-09-26T02:24:34.239Z,2.20
2018-09-26T02:27:03.055Z,2.30
2018-09-26T02:29:31.788Z,2.43
2018-09-26T02:32:00.900Z,1.80
2018-09-26T02:34:29.636Z,2.47
2018-09-26T02:36:58.490Z,2.60
2018-09-26T02:39:27.713Z,2.13
2018-09-26T02:41:56.597Z,2.03
2018-09-26T02:44:26.073Z,2.20
2018-09-26T02:46:54.929Z,1.90
2018-09-26T02:49:23.534Z,2.20
2018-09-26T02:51:52.254Z,2.03
2018-09-26T02:54:21.548Z,1.97
2018-09-26T02:56:50.254Z,2.47
2018-09-26T02:59:19.329Z,2.43
2018-09-26T03:01:47.989Z,2.40
2018-09-26T03:04:16.745Z,1.80
2018-09-26T03:06:45.883Z,2.40
2018-09-26T03:09:14.583Z,3.20
2018-09-26T03:11:43.308Z,3.10
2018-09-26T03:14:12.347Z,3.20
2018-09-26T03:16:40.959Z,4.42
2018-09-26T03:19:09.705Z,2.60
2018-09-26T03:21:38.741Z,2.60
2018-09-26T03:24:08.277Z,2.07
2018-09-26T03:26:36.985Z,2.40
2018-09-26T03:29:06.205Z,3.00
2018-09-26T03:31:34.858Z,2.53
2018-09-26T03:34:03.737Z,2.30
2018-09-26T03:36:32.863Z,2.00
2018-09-26T03:39:03.283Z,1.60
2018-09-26T03:41:32.258Z,3.40
2018-09-26T03:44:01.168Z,2.63
2018-09-26T03:46:30.547Z,1.90
2018-09-26T03:48:59.454Z,2.62
2018-09-26T03:51:28.172Z,1.80
2018-09-26T03:53:57.075Z,2.47
2018-09-26T03:56:26.818Z,3.37
2018-09-26T03:58:56.021Z,2.77
2018-09-26T04:01:24.972Z,2.07
2018-09-26T04:03:53.928Z,2.63
2018-09-26T04:06:22.447Z,2.07
2018-09-26T04:08:51.278Z,1.90
2018-09-26T04:11:19.988Z,2.40
2018-09-26T04:13:48.953Z,2.30
2018-09-26T04:16:18.017Z,2.10
2018-09-26T04:18:47.055Z,1.77
2018-09-26T04:21:15.811Z,2.20
2018-09-26T04:23:44.782Z,1.60
2018-09-26T04:26:15.087Z,1.63
2018-09-26T04:28:43.928Z,1.90
2018-09-26T04:31:26.526Z,1.80
2018-09-26T04:33:55.718Z,1.70
2018-09-26T04:36:24.961Z,1.43
2018-09-26T04:38:54.019Z,1.73
2018-09-26T04:41:22.795Z,1.92
2018-09-26T04:43:51.783Z,2.00
2018-09-26T04:46:20.742Z,2.07
2018-09-26T04:48:49.474Z,1.90
2018-09-26T04:51:18.525Z,2.17
2018-09-26T04:53:47.113Z,1.93
2018-09-26T04:56:15.840Z,2.23
2018-09-26T04:58:44.645Z,1.70
2018-09-26T05:01:13.304Z,1.93
2018-09-26T05:03:42.463Z,1.70
2018-09-26T05:06:11.367Z,2.00
2018-09-26T05:08:41.897Z,2.50
2018-09-26T05:11:11.156Z,2.50
2018-09-26T05:13:40.085Z,2.83
2018-09-26T05:16:09.703Z,2.70
2018-09-26T05:18:38.729Z,2.93
2018-09-26T05:21:07.740Z,3.20
2018-09-26T05:23:36.975Z,3.05
2018-09-26T05:26:06.209Z,2.20
2018-09-26T05:28:35.474Z,2.10
2018-09-26T05:31:06.262Z,1.90
2018-09-26T05:33:35.504Z,1.77
2018-09-26T05:36:04.986Z,1.77
2018-09-26T05:38:33.936Z,2.40
2018-09-26T05:41:03.014Z,4.70
2018-09-26T05:43:32.340Z,11.83
2018-09-26T05:46:02.109Z,4.72
2018-09-26T05:48:31.128Z,1.90
2018-09-26T05:51:01.234Z,2.17
2018-09-26T05:53:30.592Z,4.70
2018-09-26T05:55:59.747Z,3.47
2018-09-26T05:58:28.695Z,2.83
2018-09-26T06:00:57.979Z,2.90
2018-09-26T06:03:28.162Z,2.60
2018-09-26T06:05:57.758Z,2.47
2018-09-26T06:08:26.884Z,2.37
2018-09-26T06:10:56.050Z,3.40
2018-09-26T06:13:25.352Z,2.50
2018-09-26T06:15:56.931Z,3.43
2018-09-26T06:18:27.072Z,2.47
2018-09-26T06:20:56.135Z,2.70
2018-09-26T06:23:26.296Z,2.43
2018-09-26T06:26:01.094Z,2.70
2018-09-26T06:28:30.563Z,2.10
2018-09-26T06:30:59.661Z,3.30
2018-09-26T06:33:31.289Z,3.90
2018-09-26T06:36:01.540Z,2.73
2018-09-26T06:38:30.367Z,3.40
2018-09-26T06:40:59.823Z,3.57
2018-09-26T06:43:31.224Z,3.67
2018-09-26T06:46:01.529Z,3.17
2018-09-26T06:48:30.552Z,4.20
2018-09-26T06:50:59.440Z,4.17
2018-09-26T06:53:28.751Z,3.67
2018-09-26T06:55:58.127Z,3.83
2018-09-26T06:58:27.680Z,3.50
2018-09-26T07:00:56.920Z,4.33
2018-09-26T07:03:25.739Z,3.87
2018-09-26T07:06:01.255Z,3.83
2018-09-26T07:08:31.357Z,4.70
2018-09-26T07:11:00.484Z,4.63
2018-09-26T07:13:29.453Z,5.53
2018-09-26T07:15:58.597Z,3.83
2018-09-26T07:18:27.842Z,4.13
2018-09-26T07:20:57.001Z,4.13
2018-09-26T07:23:27.805Z,4.20
2018-09-26T07:25:58.735Z,3.60
2018-09-26T07:28:29.344Z,3.63
2018-09-26T07:30:58.263Z,4.77
2018-09-26T07:33:27.799Z,3.53
2018-09-26T07:35:57.118Z,3.50
2018-09-26T07:38:26.684Z,2.97
2018-09-26T07:40:55.707Z,3.50
2018-09-26T07:43:25.003Z,3.73
2018-09-26T07:45:54.063Z,2.80
2018-09-26T07:48:23.433Z,3.37
2018-09-26T07:50:52.224Z,2.83
2018-09-26T07:53:21.349Z,3.10
2018-09-26T07:55:50.661Z,2.80
2018-09-26T07:58:19.944Z,3.13
2018-09-26T08:00:48.924Z,2.50
2018-09-26T08:03:18.142Z,2.47
2018-09-26T08:05:47.366Z,2.43
2018-09-26T08:08:16.326Z,3.17
2018-09-26T08:10:45.548Z,2.00
2018-09-26T08:13:16.454Z,2.60
2018-09-26T08:15:45.445Z,2.60
2018-09-26T08:18:15.820Z,2.60
2018-09-26T08:20:44.725Z,2.73
2018-09-26T08:23:13.658Z,3.20
2018-09-26T08:25:44.718Z,2.60
2018-09-26T08:28:13.827Z,2.40
2018-09-26T08:30:43.194Z,2.27
2018-09-26T08:33:12.500Z,2.00
2018-09-26T08:35:42.018Z,2.23
2018-09-26T08:38:11.160Z,2.37
2018-09-26T08:40:40.149Z,2.43
2018-09-26T08:43:09.486Z,2.70
2018-09-26T08:45:38.081Z,2.10
2018-09-26T08:48:06.973Z,2.60
2018-09-26T08:50:35.652Z,2.60
2018-09-26T08:53:04.265Z,2.37
2018-09-26T08:55:32.960Z,2.90
2018-09-26T08:58:01.805Z,1.90
2018-09-26T09:00:33.174Z,2.33
2018-09-26T09:03:02.211Z,3.63
2018-09-26T09:05:31.395Z,2.80
2018-09-26T09:08:01.492Z,3.03
2018-09-26T09:10:30.425Z,2.67
2018-09-26T09:12:59.645Z,2.30
2018-09-26T09:15:30.388Z,2.63
2018-09-26T09:17:59.497Z,2.90
2018-09-26T09:20:28.888Z,2.70
2018-09-26T09:22:57.674Z,3.00
2018-09-26T09:25:26.664Z,2.83
2018-09-26T09:27:55.803Z,3.20
2018-09-26T09:30:24.762Z,3.13
2018-09-26T09:32:53.975Z,3.20
2018-09-26T09:35:22.762Z,2.70
2018-09-26T09:37:51.933Z,2.70
2018-09-26T09:40:20.705Z,3.20
2018-09-26T09:42:49.085Z,2.60
2018-09-26T09:45:17.723Z,3.23
2018-09-26T09:47:46.182Z,2.87
2018-09-26T09:50:14.796Z,3.03
2018-09-26T09:52:43.346Z,2.60
2018-09-26T09:55:12.193Z,2.70
2018-09-26T09:57:41.457Z,3.10
2018-09-26T10:00:10.616Z,3.40
2018-09-26T10:02:40.232Z,3.50
2018-09-26T10:05:09.548Z,3.43
2018-09-26T10:07:38.842Z,3.20
2018-09-26T10:10:07.473Z,3.97
2018-09-26T10:12:36.597Z,3.60
2018-09-26T10:15:05.522Z,3.63
2018-09-26T10:17:34.384Z,3.40
2018-09-26T10:20:03.276Z,3.30
2018-09-26T10:22:32.049Z,3.30
2018-09-26T10:25:01.683Z,3.07
2018-09-26T10:27:30.671Z,3.33
2018-09-26T10:29:59.817Z,3.23
2018-09-26T10:32:28.745Z,3.00
2018-09-26T10:34:58.688Z,3.50
2018-09-26T10:37:28.037Z,2.90
2018-09-26T10:39:57.051Z,3.00
2018-09-26T10:42:25.758Z,3.33
2018-09-26T10:44:54.402Z,3.00
2018-09-26T10:47:23.251Z,3.00
2018-09-26T10:49:52.148Z,3.10
2018-09-26T10:52:20.948Z,3.47
2018-09-26T10:54:50.008Z,2.80
2018-09-26T10:57:19.224Z,2.83
2018-09-26T10:59:48.348Z,3.90
2018-09-26T11:02:17.253Z,3.80
2018-09-26T11:04:50.635Z,2.67
2018-09-26T11:07:19.548Z,3.00
2018-09-26T11:09:48.796Z,2.47
2018-09-26T11:12:19.411Z,2.90
2018-09-26T11:14:48.630Z,2.60
2018-09-26T11:17:17.421Z,2.97
2018-09-26T11:19:46.744Z,3.03
2018-09-26T11:22:16.155Z,3.02
2018-09-26T11:24:45.309Z,2.87
2018-09-26T11:27:14.323Z,2.90
2018-09-26T11:29:43.208Z,2.83
2018-09-26T11:32:12.301Z,2.63
2018-09-26T11:34:41.715Z,2.55
2018-09-26T11:37:10.555Z,2.97
2018-09-26T11:39:39.625Z,2.57
2018-09-26T11:42:08.590Z,3.07
2018-09-26T11:44:37.197Z,3.37
2018-09-26T11:47:05.851Z,2.83
2018-09-26T11:49:34.631Z,2.50
2018-09-26T11:52:03.513Z,2.80
2018-09-26T11:54:32.449Z,2.03
2018-09-26T11:57:01.784Z,3.15
2018-09-26T11:59:30.771Z,2.83
2018-09-26T12:01:59.472Z,2.40
2018-09-26T12:04:28.013Z,2.67
2018-09-26T12:06:57.509Z,2.45
2018-09-26T12:09:26.810Z,2.40
2018-09-26T12:11:55.832Z,2.33
2018-09-26T12:14:24.925Z,2.23
2018-09-26T12:16:53.942Z,2.93
2018-09-26T12:19:22.938Z,2.30
2018-09-26T12:21:51.878Z,2.17
2018-09-26T12:24:20.894Z,1.97
2018-09-26T12:26:50.143Z,1.93
2018-09-26T12:29:19.124Z,2.10
2018-09-26T12:31:48.379Z,2.30
2018-09-26T12:34:17.115Z,2.03
2018-09-26T12:36:45.823Z,2.27
2018-09-26T12:39:14.731Z,2.30
2018-09-26T12:41:43.409Z,2.27
2018-09-26T12:44:11.846Z,2.40
2018-09-26T12:46:40.538Z,1.80
2018-09-26T12:49:09.658Z,2.13
2018-09-26T12:51:38.563Z,2.00
2018-09-26T12:54:07.852Z,1.80
2018-09-26T12:56:36.854Z,2.27
2018-09-26T12:59:06.185Z,2.03
2018-09-26T13:01:35.512Z,4.67
2018-09-26T13:04:04.580Z,2.50
2018-09-26T13:06:33.750Z,2.23
2018-09-26T13:09:02.934Z,1.90
2018-09-26T13:11:31.840Z,1.80
2018-09-26T13:14:00.880Z,1.70
2018-09-26T13:16:30.020Z,1.77
2018-09-26T13:18:59.465Z,2.37
2018-09-26T13:21:28.857Z,2.27
2018-09-26T13:23:58.978Z,2.07
2018-09-26T13:26:28.125Z,2.10
2018-09-26T13:28:57.629Z,1.83
2018-09-26T13:31:26.421Z,1.53
2018-09-26T13:33:55.283Z,1.70
2018-09-26T13:36:24.051Z,1.70
2018-09-26T13:38:52.912Z,1.40
2018-09-26T13:41:21.492Z,2.50
2018-09-26T13:43:50.247Z,2.22
2018-09-26T13:46:19.353Z,1.67
2018-09-26T13:48:48.799Z,2.23
2018-09-26T13:51:17.432Z,1.90
2018-09-26T13:53:49.873Z,2.07
2018-09-26T13:56:19.896Z,1.90
2018-09-26T13:58:49.285Z,1.97
2018-09-26T14:01:18.293Z,7.20
2018-09-26T14:03:47.237Z,1.97
2018-09-26T14:06:15.878Z,2.00
2018-09-26T14:08:44.814Z,2.00
2018-09-26T14:11:13.812Z,2.47
2018-09-26T14:13:42.600Z,2.40
2018-09-26T14:16:12.021Z,1.80
2018-09-26T14:18:41.034Z,1.80
2018-09-26T14:21:26.401Z,1.73
2018-09-26T14:23:55.597Z,1.90
2018-09-26T14:26:25.743Z,1.93
2018-09-26T14:28:55.161Z,2.10
2018-09-26T14:31:23.935Z,1.97
2018-09-26T14:33:53.386Z,2.10
2018-09-26T14:36:22.218Z,1.75
2018-09-26T14:38:50.939Z,1.80
2018-09-26T14:41:19.993Z,2.37
2018-09-26T14:43:49.246Z,2.20
2018-09-26T14:46:18.467Z,1.90
2018-09-26T14:48:47.599Z,1.77
2018-09-26T14:51:16.672Z,1.80
2018-09-26T14:53:46.543Z,1.90
2018-09-26T14:56:15.814Z,1.43
2018-09-26T14:58:45.300Z,1.93
2018-09-26T15:01:14.260Z,1.70
2018-09-26T15:03:43.720Z,1.50
2018-09-26T15:06:13.861Z,1.70
2018-09-26T15:08:43.181Z,1.70
2018-09-26T15:11:11.844Z,1.70
2018-09-26T15:13:41.010Z,1.97
2018-09-26T15:16:10.151Z,2.30
2018-09-26T15:18:39.239Z,1.87
2018-09-26T15:21:08.675Z,1.77
2018-09-26T15:23:38.233Z,2.03
2018-09-26T15:26:08.012Z,2.17
2018-09-26T15:28:36.923Z,1.97
2018-09-26T15:31:05.822Z,1.87
2018-09-26T15:33:34.873Z,2.00
2018-09-26T15:36:03.663Z,1.80
2018-09-26T15:38:32.442Z,2.37
2018-09-26T15:41:01.718Z,2.20
2018-09-26T15:43:30.722Z,2.07
2018-09-26T15:46:01.148Z,2.40
2018-09-26T15:48:30.618Z,2.50
2018-09-26T15:51:00.082Z,2.57
2018-09-26T15:53:29.225Z,2.97
2018-09-26T15:55:58.273Z,2.60
2018-09-26T15:58:28.260Z,2.53
2018-09-26T16:00:57.602Z,2.90
2018-09-26T16:03:26.973Z,2.70
2018-09-26T16:05:56.465Z,3.30
2018-09-26T16:08:25.857Z,3.90
2018-09-26T16:10:55.073Z,3.77
2018-09-26T16:13:23.990Z,3.10
2018-09-26T16:15:52.943Z,2.80
2018-09-26T16:18:21.894Z,2.83
2018-09-26T16:20:51.720Z,2.67
2018-09-26T16:23:20.476Z,3.40
2018-09-26T16:25:49.353Z,2.87
2018-09-26T16:28:18.201Z,3.30
2018-09-26T16:30:46.835Z,3.20
2018-09-26T16:33:15.684Z,3.42
2018-09-26T16:35:44.413Z,3.33
2018-09-26T16:38:13.906Z,3.17
2018-09-26T16:40:43.168Z,3.00
2018-09-26T16:43:12.312Z,2.97
2018-09-26T16:45:40.973Z,3.13
2018-09-26T16:48:09.853Z,3.47
2018-09-26T16:50:38.678Z,3.30
2018-09-26T16:53:07.417Z,3.30
2018-09-26T16:55:36.211Z,3.03
2018-09-26T16:58:05.216Z,3.57
2018-09-26T17:00:34.428Z,2.50
2018-09-26T17:03:03.680Z,3.67
2018-09-26T17:05:32.417Z,3.30
2018-09-26T17:08:01.598Z,2.73
2018-09-26T17:10:30.529Z,2.67
2018-09-26T17:12:59.838Z,2.60
2018-09-26T17:15:30.572Z,2.77
2018-09-26T17:17:59.343Z,3.07
2018-09-26T17:20:29.226Z,2.70
2018-09-26T17:22:57.821Z,2.43
2018-09-26T17:25:27.031Z,2.20
2018-09-26T17:27:56.364Z,2.27
2018-09-26T17:30:25.351Z,2.70
2018-09-26T17:32:54.268Z,2.63
2018-09-26T17:35:23.205Z,2.20
2018-09-26T17:40:45.264Z,2.40
2018-09-26T17:43:14.747Z,2.30
2018-09-26T17:45:43.521Z,2.50
2018-09-26T17:48:12.604Z,2.90
2018-09-26T17:50:44.199Z,3.20
2018-09-26T17:53:13.119Z,2.60
2018-09-26T17:55:42.338Z,2.40
2018-09-26T17:58:11.208Z,2.80
2018-09-26T18:00:41.135Z,3.10
2018-09-26T18:03:10.158Z,2.77
2018-09-26T18:05:39.009Z,4.00
2018-09-26T18:08:09.683Z,5.37
2018-09-26T18:10:39.303Z,6.00
2018-09-26T18:13:09.000Z,5.30
2018-09-26T18:15:38.304Z,5.60
2018-09-26T18:18:07.957Z,4.90
2018-09-26T18:20:37.053Z,7.97
2018-09-26T18:23:05.575Z,5.80
2018-09-26T18:25:34.529Z,2.90
2018-09-26T18:28:03.350Z,5.15
2018-09-26T18:30:32.209Z,7.97
2018-09-26T18:33:01.337Z,14.67
2018-09-26T18:35:30.525Z,9.73
2018-09-26T18:54:19.376Z,5.90
2018-09-26T18:56:48.728Z,5.30
2018-09-26T18:59:17.779Z,5.33
2018-09-26T19:01:46.569Z,6.63
2018-09-26T19:04:15.911Z,6.33
2018-09-26T19:06:44.786Z,7.17
2018-09-26T19:09:14.402Z,6.90
2018-09-26T19:11:43.557Z,6.80
2018-09-26T19:14:12.704Z,10.80
2018-09-26T19:16:41.787Z,15.50
2018-09-26T19:19:13.304Z,23.80
2018-09-26T19:21:42.397Z,15.53
2018-09-26T19:24:12.641Z,7.83
2018-09-26T19:26:43.370Z,4.33
2018-09-26T19:29:12.549Z,3.13
2018-09-26T19:31:41.756Z,2.60
2018-09-26T19:34:12.660Z,2.70
2018-09-26T19:36:41.933Z,2.80
2018-09-26T19:39:11.615Z,2.47
2018-09-26T19:41:41.000Z,2.30
2018-09-26T19:44:10.341Z,2.27
2018-09-26T19:46:39.534Z,3.63
2018-09-26T19:49:08.713Z,2.30
2018-09-26T19:51:38.004Z,3.10
2018-09-26T19:54:06.883Z,4.37
2018-09-26T19:56:36.009Z,6.53
2018-09-26T19:59:05.049Z,7.83
2018-09-26T20:01:33.764Z,6.53
2018-09-26T20:04:02.365Z,6.77
2018-09-26T20:06:31.036Z,7.00
2018-09-26T20:08:59.935Z,5.37
2018-09-26T20:11:29.185Z,4.90
2018-09-26T20:13:58.332Z,4.60
2018-09-26T20:16:27.106Z,5.17
2018-09-26T20:18:55.836Z,5.40
2018-09-26T20:21:25.986Z,5.63
2018-09-26T20:23:54.891Z,5.30
2018-09-26T20:26:23.810Z,4.80
2018-09-26T20:28:53.041Z,4.70
2018-09-26T20:31:22.072Z,5.30
2018-09-26T20:33:50.955Z,5.87
2018-09-26T20:36:20.002Z,5.90
2018-09-26T20:38:49.090Z,7.47
2018-09-26T20:41:17.952Z,6.12
2018-09-26T20:43:46.821Z,6.27
2018-09-26T20:46:15.939Z,8.23
2018-09-26T20:48:45.974Z,6.97
2018-09-26T20:51:14.551Z,6.70
2018-09-26T20:53:43.458Z,6.67
2018-09-26T20:56:12.532Z,6.80
2018-09-26T20:58:41.310Z,5.20
2018-09-26T21:01:10.727Z,4.93
2018-09-26T21:03:39.516Z,4.80
2018-09-26T21:06:08.185Z,5.90
2018-09-26T21:08:36.906Z,5.40
2018-09-26T21:11:05.255Z,6.17
2018-09-26T21:13:33.981Z,6.43
2018-09-26T21:16:02.627Z,6.60
2018-09-26T21:18:31.400Z,4.33
2018-09-26T21:21:00.239Z,3.37
2018-09-26T21:23:28.869Z,4.20
2018-09-26T21:25:57.534Z,5.93
2018-09-26T21:28:26.349Z,5.70
2018-09-26T21:30:55.940Z,5.70
2018-09-26T21:34:25.366Z,5.08
2018-09-26T21:36:53.989Z,5.57
2018-09-26T21:39:22.859Z,5.60
2018-09-26T21:41:52.289Z,4.73
2018-09-26T21:44:21.087Z,5.10
2018-09-26T21:46:49.755Z,5.13
2018-09-26T21:49:18.346Z,5.90
2018-09-26T21:51:47.122Z,5.23
2018-09-26T21:54:16.064Z,5.80
2018-09-26T21:56:44.689Z,5.67
2018-09-26T21:59:13.593Z,5.37
2018-09-26T22:01:42.240Z,5.93
2018-09-26T22:04:10.723Z,5.92
2018-09-26T22:06:39.282Z,5.00
2018-09-26T22:09:09.150Z,5.08
2018-09-26T22:11:38.085Z,5.17
2018-09-26T22:14:07.184Z,5.40
2018-09-26T22:16:36.259Z,3.97
2018-09-26T22:19:05.217Z,4.53
2018-09-26T22:21:33.998Z,4.63
2018-09-26T22:24:02.798Z,4.12
2018-09-26T22:26:31.434Z,3.70
2018-09-26T22:29:00.573Z,2.77
2018-09-26T22:31:29.220Z,3.70
2018-09-26T22:33:58.030Z,4.00
2018-09-26T22:36:26.831Z,3.30
2018-09-26T22:38:55.808Z,4.07
2018-09-26T22:41:24.710Z,3.30
2018-09-26T22:43:53.933Z,3.10
2018-09-26T22:46:23.204Z,3.20
2018-09-26T22:48:52.057Z,3.72
2018-09-26T22:51:21.157Z,4.00
2018-09-26T22:53:49.695Z,3.93
2018-09-26T22:56:18.435Z,4.17
2018-09-26T22:58:47.204Z,4.57
2018-09-26T23:01:15.883Z,4.43
2018-09-26T23:03:44.440Z,3.90
2018-09-26T23:06:13.229Z,3.98
2018-09-26T23:08:42.012Z,3.60
2018-09-26T23:11:11.022Z,3.70
2018-09-26T23:13:39.826Z,4.23
2018-09-26T23:16:08.892Z,4.60
2018-09-26T23:18:38.248Z,4.50
2018-09-26T23:21:07.329Z,4.53
2018-09-26T23:23:36.215Z,4.23
2018-09-26T23:26:05.006Z,4.47
2018-09-26T23:28:33.978Z,4.97
2018-09-26T23:31:02.583Z,5.10
2018-09-26T23:33:31.272Z,4.90
2018-09-26T23:36:00.131Z,4.40
2018-09-26T23:38:29.934Z,4.47
2018-09-26T23:40:59.087Z,4.30
2018-09-26T23:43:27.790Z,3.37
2018-09-26T23:45:56.406Z,3.97
